Jonesboro, Indiana
Current Conditions -  °F | °C
As of 8:55 AM on Monday 24 Nov 2014 (Local Time) from KMZZ Reporting Station
Haze Haze  
Wind Chill: 53°   Ceiling: 2300
Heat Index: 53°   Visibility: 4mi
Dew Point: 50°   Wind: 24mph
Humidity: 90%   Direction: 220°SW
Pressure: 29.18"   Gusts: 32mph
Location:  40.48°N, 85.63°W
Report Text: KMZZ 241355Z AUTO 22021G28KT 4SM HZ BKN023 BKN027 OVC033 12/10 A2918 RMK AO2 P0001 T01170101
Loading
Personal Weather Stations






























Interactive Weather Map New forecast layout! Learn more

10-Day Weather Forecast

Advertisements
Track Severe Weather on mobile